Time;durP1;ratioP1;P1;durP2;ratioP2;P2;SDS_P1;SDS_P2;PMS_P1;PMS_P2;Temp;Humidity;BMP_temperature;BMP_pressure;BME280_temperature;BME280_humidity;BME280_pressure;Samples;Min_cycle;Max_cycle;Signal;HPM_P1;HPM_P2
2023/06/01 00:01:47;;;;;;;9.38;6.10;;;11.60;99.90;;;;;;6186389;23;20078;-45
2023/06/01 00:04:13;;;;;;;14.95;7.72;;;11.60;99.90;;;;;;6213359;23;20074;-44
2023/06/01 00:06:39;;;;;;;8.82;6.35;;;11.60;99.90;;;;;;6213415;23;20040;-43
2023/06/01 00:09:05;;;;;;;11.85;6.50;;;11.60;99.90;;;;;;6213796;23;20021;-44
2023/06/01 00:11:31;;;;;;;11.82;6.45;;;11.60;99.90;;;;;;6213824;23;20018;-44
2023/06/01 00:13:57;;;;;;;14.30;6.20;;;11.60;99.90;;;;;;6214531;23;20084;-43
2023/06/01 00:16:23;;;;;;;10.93;5.68;;;11.60;99.90;;;;;;6215716;23;20012;-43
2023/06/01 00:18:48;;;;;;;12.07;6.15;;;11.60;99.90;;;;;;6213709;23;20017;-43
2023/06/01 00:21:15;;;;;;;11.32;5.07;;;11.60;99.90;;;;;;6187401;23;20388;-44
2023/06/01 00:23:40;;;;;;;13.00;5.97;;;11.60;99.90;;;;;;6215833;23;20021;-45
2023/06/01 00:26:07;;;;;;;10.88;5.38;;;11.60;99.90;;;;;;6215649;23;20012;-43
2023/06/01 00:28:34;;;;;;;14.90;5.57;;;11.60;99.90;;;;;;6163386;23;20058;-43
2023/06/01 00:30:59;;;;;;;11.00;4.65;;;11.60;99.90;;;;;;6217207;23;20346;-47
2023/06/01 00:33:25;;;;;;;13.07;5.30;;;11.60;99.90;;;;;;6215521;23;20043;-43
2023/06/01 00:35:51;;;;;;;11.18;6.22;;;11.60;99.90;;;;;;6215243;23;20063;-46
2023/06/01 00:38:17;;;;;;;11.60;5.88;;;11.60;99.90;;;;;;6213833;23;20059;-45
2023/06/01 00:40:45;;;;;;;12.80;6.20;;;11.70;99.90;;;;;;6210512;23;20074;-43
2023/06/01 00:43:11;;;;;;;12.57;6.05;;;11.60;99.90;;;;;;6178249;23;20052;-44
2023/06/01 00:45:40;;;;;;;14.32;6.35;;;11.70;99.90;;;;;;6181812;23;20453;-44
2023/06/01 00:48:06;;;;;;;13.25;5.85;;;11.70;99.90;;;;;;6182183;23;20079;-43
2023/06/01 00:50:32;;;;;;;12.63;5.70;;;11.70;99.90;;;;;;6184718;23;20019;-42
2023/06/01 00:52:58;;;;;;;14.80;6.18;;;11.70;99.90;;;;;;6183803;23;20048;-44
2023/06/01 00:55:26;;;;;;;13.57;5.88;;;11.70;99.90;;;;;;6185171;23;20315;-44
2023/06/01 00:57:52;;;;;;;11.70;5.47;;;11.70;99.90;;;;;;6185103;23;20067;-43
2023/06/01 01:00:19;;;;;;;10.52;5.55;;;11.70;99.90;;;;;;6183208;23;20666;-43
2023/06/01 01:02:44;;;;;;;16.45;6.30;;;11.70;99.90;;;;;;6184975;23;20279;-45
2023/06/01 01:05:11;;;;;;;13.57;5.88;;;11.70;99.90;;;;;;6185495;23;20139;-46
2023/06/01 01:07:42;;;;;;;12.45;6.20;;;11.70;99.90;;;;;;6185325;23;20013;-43
2023/06/01 01:10:15;;;;;;;10.88;5.30;;;11.70;99.90;;;;;;6184751;23;20096;-44
2023/06/01 01:12:52;;;;;;;14.25;6.53;;;11.60;99.90;;;;;;6184423;23;20021;-43
2023/06/01 01:15:28;;;;;;;11.95;5.38;;;11.60;99.90;;;;;;6185066;23;20013;-43
2023/06/01 01:18:07;;;;;;;12.00;5.80;;;11.60;99.90;;;;;;6184594;23;20286;-42
2023/06/01 01:20:37;;;;;;;11.65;6.07;;;11.60;99.90;;;;;;6184980;23;20306;-44
2023/06/01 01:23:26;;;;;;;14.85;6.10;;;11.60;99.90;;;;;;6183832;23;20032;-43
2023/06/01 01:26:07;;;;;;;12.85;4.82;;;11.50;99.90;;;;;;6180240;23;20090;-44
2023/06/01 01:28:42;;;;;;;10.25;5.90;;;11.50;99.90;;;;;;6182535;23;20013;-44
2023/06/01 01:31:12;;;;;;;14.90;6.25;;;11.50;99.90;;;;;;6182959;23;20021;-45
2023/06/01 01:33:39;;;;;;;10.73;5.75;;;11.50;99.90;;;;;;6187069;23;20083;-46
2023/06/01 01:36:06;;;;;;;11.60;5.57;;;11.50;99.90;;;;;;6184660;23;20056;-44
2023/06/01 01:38:36;;;;;;;11.43;5.75;;;11.50;99.90;;;;;;6185245;23;20256;-43
2023/06/01 01:41:02;;;;;;;10.60;5.10;;;11.50;99.90;;;;;;6184960;23;20048;-43
2023/06/01 01:43:29;;;;;;;11.23;5.82;;;11.50;99.90;;;;;;6210412;23;20012;-44
2023/06/01 01:46:05;;;;;;;10.18;5.05;;;11.50;99.90;;;;;;6215493;23;20369;-43
2023/06/01 01:48:44;;;;;;;11.07;6.13;;;11.40;99.90;;;;;;6211831;23;20015;-44
2023/06/01 01:51:39;;;;;;;8.60;5.50;;;11.40;99.90;;;;;;6182600;23;20452;-44
2023/06/01 01:54:07;;;;;;;12.25;5.72;;;11.40;99.90;;;;;;6188759;23;20016;-44
2023/06/01 01:56:35;;;;;;;7.68;4.72;;;11.40;99.90;;;;;;6215468;23;20028;-44
2023/06/01 01:59:02;;;;;;;12.55;5.80;;;11.40;99.90;;;;;;6215089;23;20025;-42
2023/06/01 02:01:29;;;;;;;12.10;5.22;;;11.40;99.90;;;;;;6215124;23;20012;-44
2023/06/01 02:04:02;;;;;;;12.52;6.00;;;11.30;99.90;;;;;;6214728;23;20083;-43
2023/06/01 02:06:28;;;;;;;14.27;6.32;;;11.30;99.90;;;;;;6215273;23;20017;-43
2023/06/01 02:08:54;;;;;;;14.35;5.95;;;11.30;99.90;;;;;;6214945;23;20024;-43
2023/06/01 02:11:20;;;;;;;12.57;5.68;;;11.30;99.90;;;;;;6214784;23;20345;-43
2023/06/01 02:13:46;;;;;;;8.95;4.85;;;11.30;99.90;;;;;;6215260;23;20028;-42
2023/06/01 02:16:12;;;;;;;10.15;5.13;;;11.30;99.90;;;;;;6215334;23;20008;-43
2023/06/01 02:18:39;;;;;;;12.20;5.20;;;11.30;99.90;;;;;;6215122;23;20013;-43
2023/06/01 02:21:05;;;;;;;15.57;6.28;;;11.30;99.90;;;;;;6214467;23;20512;-44
2023/06/01 02:23:30;;;;;;;15.18;6.63;;;11.30;99.90;;;;;;6188225;23;20087;-45
2023/06/01 02:25:56;;;;;;;14.85;7.25;;;11.20;99.90;;;;;;6187603;23;20441;-42
2023/06/01 02:28:22;;;;;;;12.77;6.45;;;11.20;99.90;;;;;;6185941;23;20008;-43
2023/06/01 02:30:47;;;;;;;14.27;6.30;;;11.30;99.90;;;;;;6211241;23;20325;-44
2023/06/01 02:33:13;;;;;;;10.45;6.35;;;11.30;99.90;;;;;;6212552;23;20092;-45
2023/06/01 02:35:39;;;;;;;15.75;6.78;;;11.30;99.90;;;;;;6217677;23;20012;-43
2023/06/01 02:38:05;;;;;;;14.15;6.72;;;11.20;99.90;;;;;;6214748;23;20012;-44
2023/06/01 02:40:30;;;;;;;14.40;6.50;;;11.30;99.90;;;;;;6188241;23;20024;-42
2023/06/01 02:42:56;;;;;;;12.18;6.35;;;11.20;99.90;;;;;;6214380;23;20024;-43
2023/06/01 02:45:22;;;;;;;15.20;6.78;;;11.30;99.90;;;;;;6215846;23;20321;-42
2023/06/01 02:47:47;;;;;;;12.75;6.20;;;11.20;99.90;;;;;;6215435;23;20042;-43
2023/06/01 02:50:13;;;;;;;12.05;6.60;;;11.20;99.90;;;;;;6187762;23;20021;-44
2023/06/01 02:52:39;;;;;;;11.30;6.60;;;11.20;99.90;;;;;;6214697;23;20008;-43
2023/06/01 02:55:06;;;;;;;14.68;6.88;;;11.20;99.90;;;;;;6214704;23;20337;-43
2023/06/01 02:57:31;;;;;;;12.07;6.47;;;11.20;99.90;;;;;;6210928;23;20381;-44
2023/06/01 02:59:57;;;;;;;10.10;6.05;;;11.20;99.90;;;;;;6209369;23;20433;-45
2023/06/01 03:02:22;;;;;;;13.82;6.53;;;11.10;99.90;;;;;;6214981;23;20087;-43
2023/06/01 03:04:48;;;;;;;14.32;6.40;;;11.10;99.90;;;;;;6214006;23;20466;-45
2023/06/01 03:07:14;;;;;;;9.90;5.75;;;11.20;99.90;;;;;;6214069;23;20464;-44
2023/06/01 03:09:40;;;;;;;10.07;5.35;;;11.10;99.90;;;;;;6211860;23;20052;-43
2023/06/01 03:12:06;;;;;;;12.60;6.18;;;11.10;99.90;;;;;;6210981;23;20023;-43
2023/06/01 03:14:32;;;;;;;11.15;5.95;;;11.10;99.90;;;;;;6212818;23;20016;-44
2023/06/01 03:16:57;;;;;;;13.82;6.45;;;11.10;99.90;;;;;;6213809;23;20394;-43
2023/06/01 03:19:23;;;;;;;12.55;6.70;;;11.10;99.90;;;;;;6214427;23;20066;-43
2023/06/01 03:21:49;;;;;;;9.70;5.68;;;11.10;99.90;;;;;;6214828;23;20013;-44
2023/06/01 03:24:14;;;;;;;14.25;6.22;;;11.00;99.90;;;;;;6214604;23;20012;-43
2023/06/01 03:26:40;;;;;;;11.10;6.32;;;11.00;99.90;;;;;;6187590;23;20341;-42
2023/06/01 03:29:06;;;;;;;10.25;6.00;;;11.00;99.90;;;;;;6214156;23;20024;-43
2023/06/01 03:31:34;;;;;;;11.80;5.63;;;11.00;99.90;;;;;;6213757;23;20063;-43
2023/06/01 03:34:00;;;;;;;11.90;6.13;;;11.00;99.90;;;;;;6185472;23;20052;-45
2023/06/01 03:36:26;;;;;;;13.48;6.35;;;11.00;99.90;;;;;;6211008;23;20027;-43
2023/06/01 03:38:51;;;;;;;14.13;6.28;;;11.00;99.90;;;;;;6212820;23;20020;-44
2023/06/01 03:41:17;;;;;;;12.52;6.60;;;11.00;99.90;;;;;;6213808;23;20017;-43
2023/06/01 03:43:42;;;;;;;10.52;6.13;;;11.00;99.90;;;;;;6211616;23;20023;-43
2023/06/01 03:46:08;;;;;;;11.57;6.75;;;11.00;99.90;;;;;;6186148;23;20020;-43
2023/06/01 03:48:34;;;;;;;9.63;5.60;;;11.00;99.90;;;;;;6212373;23;20511;-43
2023/06/01 03:51:00;;;;;;;13.45;6.15;;;11.00;99.90;;;;;;6213641;23;20017;-44
2023/06/01 03:53:26;;;;;;;13.65;6.35;;;11.00;99.90;;;;;;6213275;23;20418;-43
2023/06/01 03:55:52;;;;;;;13.05;6.63;;;11.00;99.90;;;;;;6212475;23;20072;-44
2023/06/01 03:58:19;;;;;;;14.32;6.60;;;11.00;99.90;;;;;;6213038;23;20020;-46
2023/06/01 04:00:46;;;;;;;11.50;6.00;;;11.00;99.90;;;;;;6212362;23;20476;-44
2023/06/01 04:03:13;;;;;;;13.88;6.28;;;11.00;99.90;;;;;;6207860;23;20016;-45
2023/06/01 04:05:38;;;;;;;10.75;6.10;;;11.10;99.90;;;;;;6208914;23;20051;-43
2023/06/01 04:08:04;;;;;;;10.15;6.38;;;11.10;99.90;;;;;;6212126;23;20314;-44
2023/06/01 04:10:30;;;;;;;12.05;6.20;;;11.10;99.90;;;;;;6213113;23;20048;-45
2023/06/01 04:12:56;;;;;;;13.25;5.95;;;11.10;99.90;;;;;;6212736;23;20020;-42
2023/06/01 04:15:22;;;;;;;13.25;6.07;;;11.10;99.90;;;;;;6213550;23;20016;-43
2023/06/01 04:17:48;;;;;;;13.20;6.05;;;11.20;99.90;;;;;;6213036;23;20048;-45
2023/06/01 04:20:15;;;;;;;12.07;6.10;;;11.20;99.90;;;;;;6213026;23;20066;-43
2023/06/01 04:22:43;;;;;;;13.05;5.80;;;11.20;99.90;;;;;;6211431;23;20015;-43
2023/06/01 04:25:16;;;;;;;12.57;5.70;;;11.20;99.90;;;;;;6209797;23;20013;-44
2023/06/01 04:27:51;;;;;;;12.23;6.07;;;11.20;99.90;;;;;;6210463;23;20059;-45
2023/06/01 04:30:17;;;;;;;11.18;4.97;;;11.20;99.90;;;;;;6211391;23;20012;-43
2023/06/01 04:32:47;;;;;;;11.57;5.50;;;11.20;99.90;;;;;;6162260;23;20024;-43
2023/06/01 04:35:14;;;;;;;9.38;5.50;;;11.20;99.90;;;;;;6213395;23;20096;-44
2023/06/01 04:37:40;;;;;;;9.32;5.32;;;11.20;99.90;;;;;;6213359;23;20094;-43
2023/06/01 04:40:09;;;;;;;9.18;5.55;;;11.20;99.90;;;;;;6212508;23;20017;-44
2023/06/01 04:42:42;;;;;;;12.73;5.88;;;11.20;99.90;;;;;;6212631;23;20013;-44
2023/06/01 04:45:09;;;;;;;12.13;5.63;;;11.20;99.90;;;;;;6212724;23;20013;-43
2023/06/01 04:47:39;;;;;;;11.98;5.63;;;11.20;99.90;;;;;;6213029;23;20449;-44
2023/06/01 04:50:09;;;;;;;11.00;5.43;;;11.20;99.90;;;;;;6212236;23;20027;-42
2023/06/01 04:52:40;;;;;;;10.82;5.45;;;11.10;99.90;;;;;;6213052;23;20020;-43
2023/06/01 04:55:07;;;;;;;11.60;6.18;;;11.20;99.90;;;;;;6212820;23;20016;-42
2023/06/01 04:57:35;;;;;;;11.65;5.97;;;11.20;99.90;;;;;;6212725;23;20019;-42
2023/06/01 05:00:04;;;;;;;10.70;6.30;;;11.20;99.90;;;;;;6212404;23;20017;-44
2023/06/01 05:02:29;;;;;;;13.70;5.38;;;11.30;99.90;;;;;;6213025;23;20017;-42
2023/06/01 05:04:55;;;;;;;10.80;5.82;;;11.30;99.90;;;;;;6212589;23;20019;-42
2023/06/01 05:07:21;;;;;;;12.30;5.75;;;11.20;99.90;;;;;;6213994;23;20021;-43
2023/06/01 05:09:47;;;;;;;10.75;5.72;;;11.30;99.90;;;;;;6212062;23;20024;-44
2023/06/01 05:12:13;;;;;;;9.45;5.72;;;11.30;99.90;;;;;;6214406;23;20345;-44
2023/06/01 05:14:38;;;;;;;11.13;5.43;;;11.30;99.90;;;;;;6215269;23;20016;-48
2023/06/01 05:17:04;;;;;;;11.95;5.53;;;11.20;99.90;;;;;;6214179;23;20023;-45
2023/06/01 05:19:30;;;;;;;11.45;6.05;;;11.30;99.90;;;;;;6214908;23;20123;-46
2023/06/01 05:21:55;;;;;;;9.65;5.00;;;11.30;99.90;;;;;;6188200;23;20016;-44
2023/06/01 05:24:21;;;;;;;9.25;5.57;;;11.20;99.90;;;;;;6215231;23;20385;-44
2023/06/01 05:26:46;;;;;;;10.82;6.63;;;11.30;99.90;;;;;;6214666;23;20089;-43
2023/06/01 05:29:12;;;;;;;12.95;5.97;;;11.30;99.90;;;;;;6188081;23;20099;-43
2023/06/01 05:31:38;;;;;;;11.15;5.72;;;11.30;99.90;;;;;;6214204;23;20016;-43
2023/06/01 05:34:03;;;;;;;13.70;5.75;;;11.30;99.90;;;;;;6215030;23;20013;-46
2023/06/01 05:36:31;;;;;;;13.18;6.00;;;11.30;99.90;;;;;;6214402;23;20013;-43
2023/06/01 05:38:57;;;;;;;;;;;11.40;99.90;;;;;;6215489;23;20059;-44
2023/06/01 05:41:22;;;;;;;13.43;5.38;;;11.40;99.90;;;;;;6217368;23;20256;-44
2023/06/01 05:43:48;;;;;;;6.53;4.60;;;11.50;99.90;;;;;;6214978;23;20456;-44
2023/06/01 05:46:14;;;;;;;9.63;4.53;;;11.50;99.90;;;;;;6182762;23;20024;-43
2023/06/01 05:48:39;;;;;;;11.10;4.75;;;11.50;99.90;;;;;;6210839;23;20024;-43
2023/06/01 05:51:05;;;;;;;9.18;4.60;;;11.60;99.90;;;;;;6214153;23;20013;-43
2023/06/01 05:53:30;;;;;;;8.70;4.47;;;11.60;99.90;;;;;;6187590;23;20012;-43
2023/06/01 05:55:56;;;;;;;8.90;5.15;;;11.60;99.90;;;;;;6214749;23;20012;-44
2023/06/01 05:58:22;;;;;;;11.88;4.63;;;11.60;99.90;;;;;;6215651;23;20044;-44
2023/06/01 06:00:48;;;;;;;9.93;4.70;;;11.60;99.90;;;;;;6214851;23;20092;-43
2023/06/01 06:03:13;;;;;;;9.38;4.07;;;11.60;99.90;;;;;;6215428;23;20456;-45
2023/06/01 06:05:39;;;;;;;8.45;4.60;;;11.60;99.90;;;;;;6214959;23;20016;-44
2023/06/01 06:08:04;;;;;;;11.43;5.00;;;11.60;99.90;;;;;;6214342;23;20473;-45
2023/06/01 06:10:30;;;;;;;10.55;4.90;;;11.60;99.90;;;;;;6187650;23;20126;-43
2023/06/01 06:12:56;;;;;;;9.75;4.80;;;11.60;99.90;;;;;;6213583;23;20083;-44
2023/06/01 06:15:21;;;;;;;8.32;4.53;;;11.60;99.90;;;;;;6182890;23;20020;-43
2023/06/01 06:17:47;;;;;;;10.70;5.38;;;11.60;99.90;;;;;;6211285;23;20021;-43
2023/06/01 06:20:15;;;;;;;9.93;5.25;;;11.60;99.90;;;;;;6214461;23;20013;-44
2023/06/01 06:22:41;;;;;;;9.50;4.80;;;11.70;99.90;;;;;;6214431;23;20020;-43
2023/06/01 06:25:08;;;;;;;10.43;5.35;;;11.70;99.90;;;;;;6212718;23;20085;-43
2023/06/01 06:27:34;;;;;;;6.67;4.13;;;11.70;99.90;;;;;;6186867;23;20012;-44
2023/06/01 06:30:00;;;;;;;9.43;4.70;;;11.60;99.90;;;;;;6186301;23;20039;-44
2023/06/01 06:32:25;;;;;;;11.13;5.72;;;11.60;99.90;;;;;;6212378;23;20021;-43
2023/06/01 06:34:51;;;;;;;11.20;5.25;;;11.60;99.90;;;;;;6210794;23;20565;-42
2023/06/01 06:37:17;;;;;;;11.63;6.03;;;11.60;99.90;;;;;;6212680;23;20048;-43
2023/06/01 06:39:43;;;;;;;11.43;6.07;;;11.70;99.90;;;;;;6187207;23;20040;-43
2023/06/01 06:42:10;;;;;;;12.38;5.68;;;11.60;99.90;;;;;;6213316;23;20016;-42
2023/06/01 06:44:36;;;;;;;11.38;5.07;;;11.60;99.90;;;;;;6216546;23;20453;-46
2023/06/01 06:47:01;;;;;;;9.57;4.38;;;11.70;99.90;;;;;;6188468;23;20028;-42
2023/06/01 06:49:27;;;;;;;6.88;3.88;;;11.70;99.90;;;;;;6213770;23;20024;-42
2023/06/01 06:51:53;;;;;;;9.15;4.30;;;11.60;99.90;;;;;;6183082;23;20013;-43
2023/06/01 06:54:18;;;;;;;9.50;3.78;;;11.60;99.90;;;;;;6213822;23;20016;-41
2023/06/01 06:56:44;;;;;;;8.30;3.95;;;11.60;99.90;;;;;;6214423;23;20732;-43
2023/06/01 06:59:10;;;;;;;9.60;4.55;;;11.60;99.90;;;;;;6214326;23;20318;-43
2023/06/01 07:01:37;;;;;;;8.95;4.28;;;11.70;99.90;;;;;;6213827;23;20024;-44
2023/06/01 07:04:06;;;;;;;7.28;4.10;;;11.80;99.90;;;;;;6214656;23;20337;-43
2023/06/01 07:06:32;;;;;;;5.22;4.53;;;;;;;;;;6214297;23;20019;-43
2023/06/01 07:08:58;;;;;;;8.02;4.93;;;11.80;99.90;;;;;;6213697;23;20063;-44
2023/06/01 07:11:26;;;;;;;10.23;4.95;;;11.90;99.90;;;;;;6185312;23;20012;-42
2023/06/01 07:13:52;;;;;;;;;;;12.00;99.90;;;;;;6214762;23;20020;-43
2023/06/01 07:16:18;;;;;;;9.98;4.78;;;12.00;99.90;;;;;;6214581;23;19950;-45
2023/06/01 07:18:43;;;;;;;11.23;4.85;;;12.10;99.90;;;;;;6214045;23;20370;-43
2023/06/01 07:21:09;;;;;;;7.57;4.03;;;12.10;99.90;;;;;;6214562;23;20070;-45
2023/06/01 07:23:35;;;;;;;7.65;4.22;;;12.20;99.90;;;;;;6213261;23;20015;-42
2023/06/01 07:26:01;;;;;;;9.88;3.92;;;12.40;99.90;;;;;;6214823;23;20020;-44
2023/06/01 07:28:27;;;;;;;5.15;3.42;;;12.40;99.90;;;;;;6213933;23;20012;-42
2023/06/01 07:30:53;;;;;;;6.70;3.53;;;12.30;99.90;;;;;;6187179;23;20405;-42
2023/06/01 07:33:19;;;;;;;7.68;4.20;;;12.40;99.90;;;;;;6213705;23;20039;-44
2023/06/01 07:35:45;;;;;;;7.45;4.50;;;12.40;99.90;;;;;;6213386;23;20071;-42
2023/06/01 07:38:11;;;;;;;8.00;4.22;;;12.40;99.90;;;;;;6210783;23;20384;-43
2023/06/01 07:40:37;;;;;;;8.00;4.03;;;12.50;99.90;;;;;;6184545;23;20092;-45
2023/06/01 07:43:03;;;;;;;8.52;3.55;;;12.60;99.90;;;;;;6211272;23;20337;-45
2023/06/01 07:45:29;;;;;;;7.43;3.97;;;12.40;99.90;;;;;;6189165;23;20012;-42
2023/06/01 07:47:54;;;;;;;5.20;3.25;;;12.40;99.90;;;;;;6216430;23;20337;-46
2023/06/01 07:50:20;;;;;;;6.25;3.70;;;12.50;99.90;;;;;;6184449;23;20679;-43
2023/06/01 07:52:50;;;;;;;6.28;3.40;;;12.50;99.90;;;;;;6215212;23;20016;-47
2023/06/01 07:55:16;;;;;;;7.07;3.60;;;12.70;99.90;;;;;;6210228;23;20071;-44
2023/06/01 07:57:42;;;;;;;5.90;3.35;;;12.70;99.90;;;;;;6206944;23;20024;-42
2023/06/01 08:00:11;;;;;;;8.65;3.70;;;12.70;99.90;;;;;;6210075;23;20277;-43
2023/06/01 08:02:37;;;;;;;6.30;3.35;;;12.80;99.90;;;;;;6211084;23;20017;-44
2023/06/01 08:05:02;;;;;;;7.00;3.45;;;12.80;99.90;;;;;;6208641;23;20089;-43
2023/06/01 08:07:29;;;;;;;4.90;3.13;;;12.70;99.90;;;;;;6183743;23;20099;-44
2023/06/01 08:09:57;;;;;;;5.07;3.55;;;12.80;99.90;;;;;;6208838;23;20012;-42
2023/06/01 08:12:23;;;;;;;;;;;12.90;99.90;;;;;;6209309;23;20031;-43
2023/06/01 08:14:48;;;;;;;5.13;3.25;;;12.80;99.90;;;;;;6208286;23;19991;-44
2023/06/01 08:17:14;;;;;;;6.57;3.58;;;12.90;99.90;;;;;;6210713;23;20013;-44
2023/06/01 08:19:42;;;;;;;7.35;3.67;;;12.90;99.90;;;;;;6209972;23;20290;-43
2023/06/01 08:22:07;;;;;;;7.25;3.75;;;13.00;99.90;;;;;;6210381;23;20341;-44
2023/06/01 08:24:34;;;;;;;6.15;3.63;;;13.10;99.90;;;;;;6211067;23;20012;-43
2023/06/01 08:27:00;;;;;;;8.07;4.15;;;13.00;99.90;;;;;;6209585;23;20020;-43
2023/06/01 08:29:26;;;;;;;6.45;4.65;;;13.10;99.90;;;;;;6208796;23;20020;-43
2023/06/01 08:31:52;;;;;;;7.20;4.20;;;13.20;99.90;;;;;;6208923;23;20021;-44
2023/06/01 08:34:19;;;;;;;9.63;4.65;;;13.30;99.90;;;;;;6208654;23;20128;-44
2023/06/01 08:36:45;;;;;;;5.90;4.10;;;13.30;99.90;;;;;;6207104;23;20044;-43
2023/06/01 08:39:23;;;;;;;8.75;4.50;;;13.20;99.90;;;;;;6211466;23;20322;-45
2023/06/01 08:41:55;;;;;;;7.43;4.40;;;13.30;99.90;;;;;;6212029;23;20020;-45
2023/06/01 08:44:26;;;;;;;6.03;3.00;;;13.30;99.90;;;;;;6212797;23;20020;-44
2023/06/01 08:46:52;;;;;;;5.55;3.00;;;13.40;99.90;;;;;;6217913;23;20023;-42
2023/06/01 08:49:20;;;;;;;4.90;2.22;;;13.60;99.90;;;;;;6189719;23;20021;-46
2023/06/01 08:51:51;;;;;;;4.75;2.67;;;13.40;99.90;;;;;;6213015;23;20484;-43
2023/06/01 08:54:16;;;;;;;3.22;2.13;;;13.60;99.90;;;;;;6212820;23;20608;-45
2023/06/01 08:56:42;;;;;;;7.75;2.97;;;13.60;99.90;;;;;;6211003;23;20020;-45
2023/06/01 08:59:11;;;;;;;5.72;2.88;;;13.50;99.90;;;;;;6215495;23;20012;-45
2023/06/01 09:01:38;;;;;;;7.40;3.40;;;13.80;99.90;;;;;;6214218;23;20039;-44
2023/06/01 09:04:04;;;;;;;6.50;3.50;;;14.20;99.90;;;;;;6211492;23;20017;-45
2023/06/01 09:06:29;;;;;;;6.53;3.78;;;14.20;99.90;;;;;;6210706;23;20505;-45
2023/06/01 09:08:55;;;;;;;9.23;4.10;;;14.30;99.90;;;;;;6209016;23;20106;-44
2023/06/01 09:11:21;;;;;;;9.10;4.35;;;14.50;99.90;;;;;;6210051;23;20008;-44
2023/06/01 09:13:47;;;;;;;8.13;3.22;;;14.60;99.90;;;;;;6206113;23;20094;-45
2023/06/01 09:16:12;;;;;;;7.30;3.65;;;14.40;99.90;;;;;;6208991;23;20013;-44
2023/06/01 09:18:53;;;;;;;7.50;3.75;;;14.50;99.90;;;;;;6208547;23;20329;-45
2023/06/01 09:21:20;;;;;;;7.50;3.78;;;14.70;99.90;;;;;;6211192;23;20016;-43
2023/06/01 09:23:47;;;;;;;6.90;3.63;;;15.00;99.90;;;;;;6210577;23;20286;-45
2023/06/01 09:26:14;;;;;;;5.33;2.67;;;15.10;99.90;;;;;;6182329;23;20025;-45
2023/06/01 09:28:55;;;;;;;4.47;2.80;;;15.10;99.90;;;;;;6210140;23;20307;-45
2023/06/01 09:31:41;;;;;;;4.05;2.38;;;15.10;99.90;;;;;;6181772;23;20492;-44
2023/06/01 09:34:20;;;;;;;3.75;2.58;;;15.40;99.90;;;;;;6210488;23;20461;-44
2023/06/01 09:36:52;;;;;;;5.68;2.72;;;15.20;99.90;;;;;;6184079;23;20027;-45
2023/06/01 09:39:20;;;;;;;4.63;2.20;;;15.20;99.90;;;;;;6211259;23;20016;-45
2023/06/01 09:41:50;;;;;;;5.88;2.63;;;14.80;99.90;;;;;;6186061;23;20087;-44
2023/06/01 09:44:23;;;;;;;2.90;1.90;;;15.00;99.90;;;;;;6213643;23;20095;-44
2023/06/01 09:46:50;;;;;;;3.92;1.83;;;14.90;99.90;;;;;;6213121;23;20051;-44
2023/06/01 09:49:25;;;;;;;3.88;2.10;;;14.90;99.90;;;;;;6214230;23;20021;-45
2023/06/01 09:52:03;;;;;;;12.50;2.25;;;14.70;99.90;;;;;;6212459;23;20075;-45
2023/06/01 09:54:30;;;;;;;7.53;2.60;;;14.90;99.90;;;;;;6210837;23;20021;-47
2023/06/01 09:56:57;;;;;;;4.45;2.60;;;15.20;99.90;;;;;;6212014;23;20039;-46
2023/06/01 09:59:24;;;;;;;4.53;2.60;;;15.30;99.90;;;;;;6211301;23;20020;-44
2023/06/01 10:01:54;;;;;;;3.83;2.80;;;15.20;99.90;;;;;;6210681;23;20422;-45
2023/06/01 10:04:23;;;;;;;4.82;2.83;;;15.30;99.90;;;;;;6212336;23;20024;-44
2023/06/01 10:06:53;;;;;;;5.45;2.30;;;15.40;99.90;;;;;;6212307;23;20016;-45
2023/06/01 10:09:20;;;;;;;4.10;2.42;;;15.40;99.90;;;;;;6214423;23;20030;-45
2023/06/01 10:11:54;;;;;;;4.32;2.55;;;15.10;99.90;;;;;;6184606;23;20019;-50
2023/06/01 10:14:24;;;;;;;5.10;2.53;;;15.10;99.90;;;;;;6212343;23;20412;-48
2023/06/01 10:16:52;;;;;;;4.68;2.35;;;15.20;99.90;;;;;;6212917;23;20036;-46
2023/06/01 10:19:20;;;;;;;4.15;2.75;;;14.90;99.90;;;;;;6210446;23;20008;-45
2023/06/01 10:21:46;;;;;;;2.80;2.22;;;14.90;99.90;;;;;;6211971;23;20019;-47
2023/06/01 10:24:13;;;;;;;3.33;2.10;;;14.70;99.90;;;;;;6213076;23;20016;-46
2023/06/01 10:26:51;;;;;;;3.97;1.75;;;14.80;99.90;;;;;;6213710;23;20019;-44
2023/06/01 10:29:18;;;;;;;3.65;2.22;;;14.50;99.90;;;;;;6214586;23;20020;-45
2023/06/01 10:31:44;;;;;;;2.45;1.80;;;14.70;99.90;;;;;;6212324;23;20016;-44
2023/06/01 10:34:12;;;;;;;2.40;1.70;;;14.80;99.90;;;;;;6213543;23;20270;-46
2023/06/01 10:36:53;;;;;;;1.88;1.77;;;14.70;99.90;;;;;;6213801;23;20013;-45
2023/06/01 10:39:25;;;;;;;1.83;1.70;;;14.50;99.90;;;;;;6213365;23;20024;-45
2023/06/01 10:41:52;;;;;;;2.30;1.60;;;14.50;99.90;;;;;;6214570;23;20146;-45
2023/06/01 10:44:44;;;;;;;3.05;2.13;;;14.20;99.90;;;;;;6213831;23;20044;-46
2023/06/01 10:47:12;;;;;;;1.67;1.50;;;14.60;99.90;;;;;;6172104;23;20115;-46
2023/06/01 10:49:50;;;;;;;2.63;2.05;;;14.40;99.90;;;;;;6215165;23;20306;-45
2023/06/01 10:52:29;;;;;;;2.92;1.60;;;14.50;99.90;;;;;;6186590;23;20040;-45
2023/06/01 10:55:15;;;;;;;2.35;1.77;;;14.70;99.90;;;;;;6213874;23;20027;-45
2023/06/01 10:57:45;;;;;;;3.42;1.90;;;14.80;99.90;;;;;;6212740;23;20020;-46
2023/06/01 11:00:14;;;;;;;1.98;1.77;;;14.90;99.90;;;;;;6210803;23;20119;-49
2023/06/01 11:02:50;;;;;;;3.00;1.90;;;14.70;99.90;;;;;;6211874;23;20017;-46
2023/06/01 11:05:35;;;;;;;3.53;1.80;;;14.70;99.90;;;;;;6212600;23;20075;-45
2023/06/01 11:08:01;;;;;;;3.08;1.90;;;14.60;99.90;;;;;;6212847;23;20021;-45
2023/06/01 11:10:51;;;;;;;4.68;2.60;;;14.50;99.90;;;;;;6158639;23;20082;-47
2023/06/01 11:13:29;;;;;;;4.57;2.70;;;14.60;99.90;;;;;;6187222;23;20301;-45
2023/06/01 11:16:24;;;;;;;5.13;3.10;;;14.50;99.90;;;;;;6210716;23;20079;-45
2023/06/01 11:18:58;;;;;;;6.00;3.60;;;14.60;99.90;;;;;;6196334;23;20374;-45
2023/06/01 11:21:33;;;;;;;5.00;3.55;;;14.50;99.90;;;;;;6213562;23;20071;-45
2023/06/01 11:24:00;;;;;;;3.63;2.95;;;14.40;99.90;;;;;;6184493;23;20056;-44
2023/06/01 11:26:32;;;;;;;6.60;3.65;;;14.50;99.90;;;;;;6214055;23;20023;-45
2023/06/01 11:29:17;;;;;;;4.45;3.40;;;14.20;99.90;;;;;;6212023;23;20605;-45
2023/06/01 11:31:50;;;;;;;8.77;3.60;;;14.20;99.90;;;;;;6211770;23;20023;-44
2023/06/01 11:34:20;;;;;;;6.13;3.13;;;14.30;99.90;;;;;;6212910;23;20046;-44
2023/06/01 11:36:48;;;;;;;6.38;3.58;;;14.20;99.90;;;;;;6212689;23;20025;-45
2023/06/01 11:39:24;;;;;;;4.53;2.97;;;14.40;99.90;;;;;;6183164;23;20016;-45
2023/06/01 11:41:52;;;;;;;6.00;2.95;;;14.30;99.90;;;;;;6160227;23;20468;-45
2023/06/01 11:44:18;;;;;;;;;;;14.50;99.90;;;;;;6214496;23;20076;-44
2023/06/01 11:46:55;;;;;;;7.30;3.25;;;14.50;99.90;;;;;;6213096;23;19974;-45
2023/06/01 11:49:22;;;;;;;8.57;3.70;;;14.80;99.90;;;;;;6213150;23;20027;-44
2023/06/01 11:51:47;;;;;;;6.68;3.28;;;14.90;99.90;;;;;;6216413;23;20028;-45
2023/06/01 11:54:13;;;;;;;9.63;3.50;;;15.10;99.90;;;;;;6212959;23;20017;-45
2023/06/01 11:56:40;;;;;;;7.78;3.28;;;15.30;99.90;;;;;;6213356;23;20017;-45
2023/06/01 11:59:09;;;;;;;8.00;3.47;;;15.30;99.90;;;;;;6186787;23;20084;-45
2023/06/01 12:01:43;;;;;;;6.80;3.38;;;15.40;99.90;;;;;;6212591;23;20337;-45
2023/06/01 12:04:25;;;;;;;7.50;3.17;;;15.30;99.90;;;;;;6213554;23;20009;-45
2023/06/01 12:06:51;;;;;;;7.40;3.20;;;15.20;99.90;;;;;;6185778;23;20127;-46
2023/06/01 12:09:17;;;;;;;6.85;3.40;;;15.40;99.90;;;;;;6213233;23;20013;-42
2023/06/01 12:11:44;;;;;;;7.70;3.40;;;15.40;99.90;;;;;;6213369;23;20009;-43
2023/06/01 12:14:11;;;;;;;9.83;3.10;;;15.40;99.90;;;;;;6214313;23;20027;-43
2023/06/01 12:17:05;;;;;;;6.28;3.30;;;15.20;99.90;;;;;;6214040;23;20067;-42
2023/06/01 12:19:31;;;;;;;6.78;3.20;;;15.20;99.90;;;;;;6187421;23;20013;-42
2023/06/01 12:21:58;;;;;;;11.23;3.77;;;15.00;99.90;;;;;;6212654;23;20009;-46
2023/06/01 12:24:32;;;;;;;8.75;3.65;;;15.10;99.90;;;;;;6187469;23;20095;-45
2023/06/01 12:26:59;;;;;;;8.25;3.60;;;15.40;99.90;;;;;;6214482;23;20024;-48
2023/06/01 12:29:39;;;;;;;9.48;3.30;;;15.60;99.90;;;;;;6214350;23;20017;-49
2023/06/01 12:32:05;;;;;;;8.55;3.58;;;15.60;99.90;;;;;;6213770;23;20019;-46
2023/06/01 12:34:31;;;;;;;6.30;3.28;;;15.80;99.90;;;;;;6187255;23;20012;-44
2023/06/01 12:36:57;;;;;;;7.40;3.38;;;16.00;99.90;;;;;;6213822;23;20472;-45
2023/06/01 12:39:36;;;;;;;8.02;3.30;;;16.00;99.90;;;;;;6187009;23;20009;-45
2023/06/01 12:42:05;;;;;;;10.43;3.28;;;16.10;99.90;;;;;;6213019;23;20055;-43
2023/06/01 12:44:32;;;;;;;6.90;2.80;;;15.80;99.90;;;;;;6213944;23;20365;-44
2023/06/01 12:46:59;;;;;;;;;;;15.90;99.90;;;;;;6213374;23;20044;-44
2023/06/01 12:49:25;;;;;;;7.75;3.08;;;16.10;99.90;;;;;;6215180;23;20332;-48